createdAt,value
2016-05-21T00:00:26.811Z,0
2016-05-21T00:01:26.609Z,0
2016-05-21T00:02:26.612Z,0
2016-05-21T00:03:26.522Z,0
2016-05-21T00:04:26.274Z,0
2016-05-21T00:05:26.620Z,0
2016-05-21T00:06:26.716Z,0
2016-05-21T00:07:26.314Z,0
2016-05-21T00:08:26.253Z,0
2016-05-21T00:09:26.381Z,0
2016-05-21T00:10:26.352Z,0
2016-05-21T00:11:26.195Z,0
2016-05-21T00:12:26.542Z,0
2016-05-21T00:13:26.248Z,0
2016-05-21T00:14:26.422Z,0
2016-05-21T00:15:26.097Z,0
2016-05-21T00:16:26.702Z,0
2016-05-21T00:17:26.304Z,0
2016-05-21T00:18:26.485Z,0
2016-05-21T00:19:26.290Z,0
2016-05-21T00:20:26.454Z,0
2016-05-21T00:21:26.210Z,0
2016-05-21T00:22:26.216Z,0
2016-05-21T00:23:26.220Z,0
2016-05-21T00:24:26.179Z,0
2016-05-21T00:25:26.105Z,0
2016-05-21T00:26:26.250Z,0
2016-05-21T00:27:25.972Z,0
2016-05-21T00:28:25.897Z,0
2016-05-21T00:29:26.025Z,0
2016-05-21T00:30:26.169Z,0
2016-05-21T00:31:25.954Z,0
2016-05-21T00:32:26.082Z,0
2016-05-21T00:33:25.928Z,0
2016-05-21T00:34:26.634Z,0
2016-05-21T00:35:26.465Z,0
2016-05-21T00:36:25.951Z,0
2016-05-21T00:37:26.548Z,0
2016-05-21T00:38:26.707Z,0
2016-05-21T00:39:26.241Z,0
2016-05-21T00:40:26.478Z,0
2016-05-21T00:41:25.903Z,0
2016-05-21T00:42:28.796Z,0
2016-05-21T00:43:26.439Z,0
2016-05-21T00:44:26.676Z,0
2016-05-21T00:45:26.258Z,0
2016-05-21T00:46:27.245Z,0
2016-05-21T00:47:25.950Z,0
2016-05-21T00:48:26.234Z,0
2016-05-21T00:49:25.627Z,0
2016-05-21T00:50:26.411Z,0
2016-05-21T00:51:25.571Z,0
2016-05-21T00:52:25.713Z,0
2016-05-21T00:53:25.919Z,0
2016-05-21T00:54:26.437Z,0
2016-05-21T00:55:26.096Z,0
2016-05-21T00:56:25.709Z,0
2016-05-21T00:57:25.351Z,0
2016-05-21T00:58:25.432Z,0
2016-05-21T00:59:25.482Z,0
2016-05-21T01:00:25.720Z,0
2016-05-21T01:01:25.551Z,0
2016-05-21T01:02:26.037Z,0
2016-05-21T01:03:25.274Z,0
2016-05-21T01:04:25.434Z,0
2016-05-21T01:05:26.420Z,0
2016-05-21T01:06:26.423Z,0
2016-05-21T01:07:25.567Z,0
2016-05-21T01:08:25.834Z,0
2016-05-21T01:09:25.790Z,0
2016-05-21T01:10:25.605Z,0
2016-05-21T01:11:25.858Z,0
2016-05-21T01:12:25.580Z,0
2016-05-21T01:13:25.066Z,0
2016-05-21T01:14:25.711Z,0
2016-05-21T01:15:25.494Z,0
2016-05-21T01:16:25.231Z,0
2016-05-21T01:17:25.562Z,0
2016-05-21T01:18:25.627Z,0
2016-05-21T01:19:25.380Z,0
2016-05-21T01:20:25.539Z,0
2016-05-21T01:21:25.494Z,0
2016-05-21T01:22:24.794Z,0
2016-05-21T01:23:25.563Z,0
2016-05-21T01:24:25.455Z,0
2016-05-21T01:25:24.818Z,0
2016-05-21T01:26:25.835Z,0
2016-05-21T01:27:24.651Z,0
2016-05-21T01:28:24.779Z,0
2016-05-21T01:29:25.485Z,0
2016-05-21T01:30:25.519Z,0
2016-05-21T01:31:24.553Z,0
2016-05-21T01:32:26.649Z,0
2016-05-21T01:33:24.762Z,0
2016-05-21T01:34:24.607Z,0
2016-05-21T01:35:25.657Z,0
2016-05-21T01:36:25.129Z,0
2016-05-21T01:37:25.756Z,0
2016-05-21T01:38:26.197Z,0
2016-05-21T01:39:24.856Z,0
2016-05-21T01:40:24.452Z,0
2016-05-21T01:41:25.376Z,0
2016-05-21T01:42:24.754Z,0
2016-05-21T01:43:24.273Z,0
2016-05-21T01:44:26.073Z,0
2016-05-21T01:45:24.700Z,0
2016-05-21T01:46:24.500Z,0
2016-05-21T01:47:25.721Z,0
2016-05-21T01:48:25.942Z,0
2016-05-21T01:49:24.180Z,0
2016-05-21T01:50:24.557Z,0
2016-05-21T01:51:25.872Z,0
2016-05-21T01:52:24.202Z,0
2016-05-21T01:53:24.237Z,0
2016-05-21T01:54:27.271Z,0
2016-05-21T01:55:25.852Z,0
2016-05-21T01:56:26.292Z,0
2016-05-21T01:57:23.810Z,0
2016-05-21T01:58:25.297Z,0
2016-05-21T01:59:24.879Z,0
2016-05-21T02:00:26.365Z,0
2016-05-21T02:01:24.555Z,0
2016-05-21T02:02:24.292Z,0
2016-05-21T02:03:24.295Z,0
2016-05-21T02:05:24.237Z,0
2016-05-21T02:06:24.209Z,0
2016-05-21T02:07:24.634Z,0
2016-05-21T02:08:24.667Z,0
2016-05-21T02:09:24.701Z,0
2016-05-21T02:10:23.939Z,0
2016-05-21T02:11:24.754Z,0
2016-05-21T02:12:24.617Z,0
2016-05-21T02:13:24.197Z,0
2016-05-21T02:14:26.637Z,0
2016-05-21T02:15:24.000Z,0
2016-05-21T02:16:25.845Z,0
2016-05-21T02:17:23.692Z,0
2016-05-21T02:18:23.991Z,0
2016-05-21T02:19:24.025Z,0
2016-05-21T02:20:23.935Z,0
2016-05-21T02:21:23.969Z,0
2016-05-21T02:22:23.955Z,0
2016-05-21T02:23:26.130Z,0
2016-05-21T02:24:25.836Z,0
2016-05-21T02:25:24.324Z,0
2016-05-21T02:26:24.091Z,0
2016-05-21T02:27:23.421Z,0
2016-05-21T02:28:24.050Z,0
2016-05-21T02:29:23.740Z,0
2016-05-21T02:30:23.665Z,0
2016-05-21T02:31:26.480Z,0
2016-05-21T02:32:23.888Z,0
2016-05-21T02:33:23.313Z,0
2016-05-21T02:34:24.190Z,0
2016-05-21T02:35:24.085Z,0
2016-05-21T02:36:23.758Z,0
2016-05-21T02:37:24.434Z,0
2016-05-21T02:38:23.577Z,0
2016-05-21T02:39:23.454Z,0
2016-05-21T02:40:24.129Z,0
2016-05-21T02:41:23.709Z,0
2016-05-21T02:42:24.087Z,0
2016-05-21T02:43:23.590Z,0
2016-05-21T02:44:24.749Z,0
2016-05-21T02:45:23.939Z,0
2016-05-21T02:46:23.800Z,0
2016-05-21T02:47:23.600Z,0
2016-05-21T02:48:23.603Z,0
2016-05-21T02:49:23.106Z,0
2016-05-21T02:50:24.797Z,0
2016-05-21T02:51:24.424Z,0
2016-05-21T02:53:23.570Z,0
2016-05-21T02:54:23.479Z,0
2016-05-21T02:55:26.185Z,0
2016-05-21T02:56:24.766Z,0
2016-05-21T02:57:24.815Z,0
2016-05-21T02:58:23.615Z,0
2016-05-21T02:59:23.883Z,0
2016-05-21T03:00:23.871Z,0
2016-05-21T03:02:23.359Z,0
2016-05-21T03:03:24.082Z,0
2016-05-21T03:04:24.303Z,0
2016-05-21T03:05:26.899Z,0
2016-05-21T03:06:22.901Z,0
2016-05-21T03:07:22.623Z,0
2016-05-21T03:08:23.017Z,0
2016-05-21T03:09:22.973Z,0
2016-05-21T03:10:25.725Z,0
2016-05-21T03:11:22.540Z,0
2016-05-21T03:12:23.637Z,0
2016-05-21T03:13:22.373Z,0
2016-05-21T03:14:23.439Z,0
2016-05-21T03:15:22.364Z,0
2016-05-21T03:16:23.960Z,0
2016-05-21T03:17:22.353Z,0
2016-05-21T03:18:22.403Z,0
2016-05-21T03:19:21.811Z,0
2016-05-21T03:20:22.831Z,0
2016-05-21T03:21:23.489Z,0
2016-05-21T03:23:22.026Z,0
2016-05-21T03:24:22.263Z,0
2016-05-21T03:25:22.875Z,0
2016-05-21T03:26:24.737Z,0
2016-05-21T03:28:23.586Z,0
2016-05-21T03:29:22.198Z,0
2016-05-21T03:30:22.576Z,0
2016-05-21T03:31:21.985Z,0
2016-05-21T03:32:22.331Z,0
2016-05-21T03:33:22.256Z,0
2016-05-21T03:34:22.134Z,0
2016-05-21T03:35:24.308Z,0
2016-05-21T03:37:22.079Z,0
2016-05-21T03:38:24.035Z,0
2016-05-21T03:39:22.975Z,0
2016-05-21T03:40:21.775Z,0
2016-05-21T03:41:22.418Z,0
2016-05-21T03:42:21.826Z,0
2016-05-21T03:43:21.720Z,0
2016-05-21T03:44:21.989Z,0
2016-05-21T03:45:21.553Z,0
2016-05-21T03:46:21.728Z,0
2016-05-21T03:47:21.684Z,0
2016-05-21T03:48:21.750Z,0
2016-05-21T03:49:21.627Z,0
2016-05-21T03:50:22.083Z,0
2016-05-21T03:51:22.101Z,0
2016-05-21T03:52:21.557Z,0
2016-05-21T03:53:21.700Z,0
2016-05-21T03:54:21.750Z,0
2016-05-21T03:55:21.361Z,0
2016-05-21T03:56:21.958Z,0
2016-05-21T03:57:21.336Z,0
2016-05-21T03:58:21.433Z,0
2016-05-21T03:59:21.372Z,0
2016-05-21T04:00:21.625Z,0
2016-05-21T04:01:22.815Z,0
2016-05-21T04:02:21.787Z,0
2016-05-21T04:03:21.337Z,0
2016-05-21T04:04:21.261Z,0
2016-05-21T04:05:21.732Z,0
2016-05-21T04:06:21.673Z,0
2016-05-21T04:07:21.160Z,0
2016-05-21T04:08:21.600Z,0
2016-05-21T04:09:21.290Z,0
2016-05-21T04:10:26.043Z,0
2016-05-21T04:11:22.076Z,0
2016-05-21T04:12:21.157Z,0
2016-05-21T04:13:22.051Z,0
2016-05-21T04:14:22.898Z,0
2016-05-21T04:15:20.979Z,0
2016-05-21T04:16:22.293Z,0
2016-05-21T04:17:20.921Z,0
2016-05-21T04:18:21.189Z,0
2016-05-21T04:19:21.114Z,0
2016-05-21T04:20:21.945Z,0
2016-05-21T04:21:21.026Z,0
2016-05-21T04:22:20.950Z,0
2016-05-21T04:23:20.797Z,0
2016-05-21T04:24:20.830Z,0
2016-05-21T04:25:20.818Z,0
2016-05-21T04:26:21.319Z,0
2016-05-21T04:27:20.791Z,0
2016-05-21T04:28:20.779Z,0
2016-05-21T04:29:20.360Z,0
2016-05-21T04:30:21.066Z,0
2016-05-21T04:31:20.802Z,0
2016-05-21T04:32:20.930Z,0
2016-05-21T04:33:20.870Z,0
2016-05-21T04:34:20.607Z,0
2016-05-21T04:35:20.391Z,0
2016-05-21T04:36:20.581Z,0
2016-05-21T04:37:20.757Z,0
2016-05-21T04:38:20.774Z,0
2016-05-21T04:39:20.418Z,0
2016-05-21T04:40:20.124Z,0
2016-05-21T04:41:20.470Z,0
2016-05-21T04:42:20.817Z,0
2016-05-21T04:43:20.412Z,0
2016-05-21T04:44:20.447Z,0
2016-05-21T04:45:20.340Z,5
2016-05-21T04:46:20.890Z,5
2016-05-21T04:47:20.314Z,5
2016-05-21T04:48:20.739Z,5
2016-05-21T04:49:20.523Z,5
2016-05-21T04:50:20.901Z,5
2016-05-21T04:51:20.544Z,5
2016-05-21T04:52:20.109Z,5
2016-05-21T04:53:20.158Z,5
2016-05-21T04:54:20.427Z,5
2016-05-21T04:55:20.148Z,5
2016-05-21T04:56:20.714Z,5
2016-05-21T04:57:20.107Z,5
2016-05-21T04:58:20.124Z,5
2016-05-21T04:59:19.972Z,5
2016-05-21T05:00:20.349Z,5
2016-05-21T05:01:19.993Z,5
2016-05-21T05:02:19.885Z,5
2016-05-21T05:03:20.107Z,5
2016-05-21T05:04:20.047Z,5
2016-05-21T05:05:19.800Z,5
2016-05-21T05:06:20.021Z,5
2016-05-21T05:07:19.915Z,5
2016-05-21T05:08:19.823Z,5
2016-05-21T05:09:19.811Z,5
2016-05-21T05:10:19.860Z,5
2016-05-21T05:11:19.598Z,5
2016-05-21T05:12:19.882Z,5
2016-05-21T05:13:19.806Z,5
2016-05-21T05:14:20.012Z,5
2016-05-21T05:15:19.874Z,5
2016-05-21T05:16:19.752Z,10
2016-05-21T05:17:19.661Z,10
2016-05-21T05:18:19.851Z,10
2016-05-21T05:19:19.728Z,10
2016-05-21T05:20:20.434Z,10
2016-05-21T05:21:19.843Z,10
2016-05-21T05:22:20.314Z,10
2016-05-21T05:23:19.598Z,10
2016-05-21T05:24:19.867Z,10
2016-05-21T05:25:19.666Z,10
2016-05-21T05:26:19.606Z,10
2016-05-21T05:27:19.531Z,10
2016-05-21T05:28:19.455Z,10
2016-05-21T05:29:19.444Z,5
2016-05-21T05:30:19.633Z,5
2016-05-21T05:31:19.760Z,5
2016-05-21T05:32:19.638Z,5
2016-05-21T05:33:19.485Z,5
2016-05-21T05:34:19.394Z,5
2016-05-21T05:35:19.474Z,5
2016-05-21T05:36:19.556Z,5
2016-05-21T05:37:19.495Z,5
2016-05-21T05:38:19.638Z,5
2016-05-21T05:39:19.298Z,5
2016-05-21T05:40:19.254Z,5
2016-05-21T05:41:19.943Z,5
2016-05-21T05:42:19.290Z,5
2016-05-21T05:43:19.181Z,5
2016-05-21T05:44:19.374Z,5
2016-05-21T05:45:18.968Z,5
2016-05-21T05:46:19.251Z,5
2016-05-21T05:47:19.145Z,5
2016-05-21T05:48:19.256Z,5
2016-05-21T05:49:18.947Z,5
2016-05-21T05:50:19.262Z,5
2016-05-21T05:51:19.078Z,5
2016-05-21T05:52:18.845Z,5
2016-05-21T05:53:19.036Z,5
2016-05-21T05:54:19.947Z,5
2016-05-21T05:55:18.838Z,5
2016-05-21T05:56:18.747Z,5
2016-05-21T05:57:19.391Z,5
2016-05-21T05:58:18.706Z,5
2016-05-21T05:59:18.771Z,5
2016-05-21T06:00:19.149Z,5
2016-05-21T06:01:18.729Z,5
2016-05-21T06:02:19.029Z,5
2016-05-21T06:03:18.719Z,5
2016-05-21T06:04:18.363Z,5
2016-05-21T06:05:18.225Z,10
2016-05-21T06:06:19.633Z,10
2016-05-21T06:07:18.668Z,15
2016-05-21T06:08:18.591Z,15
2016-05-21T06:09:18.391Z,10
2016-05-21T06:10:18.644Z,15
2016-05-21T06:11:18.366Z,15
2016-05-21T06:12:18.821Z,15
2016-05-21T06:13:18.902Z,15
2016-05-21T06:14:18.608Z,15
2016-05-21T06:15:18.485Z,15
2016-05-21T06:16:18.379Z,15
2016-05-21T06:17:18.741Z,15
2016-05-21T06:18:18.462Z,10
2016-05-21T06:19:18.418Z,10
2016-05-21T06:20:19.140Z,10
2016-05-21T06:21:18.330Z,10
2016-05-21T06:22:18.520Z,10
2016-05-21T06:23:18.523Z,10
2016-05-21T06:24:18.307Z,15
2016-05-21T06:25:18.731Z,10
2016-05-21T06:26:20.265Z,10
2016-05-21T06:27:18.268Z,15
2016-05-21T06:28:18.286Z,15
2016-05-21T06:29:18.133Z,15
2016-05-21T06:30:18.292Z,15
2016-05-21T06:31:18.294Z,10
2016-05-21T06:32:18.438Z,10
2016-05-21T06:33:18.002Z,10
2016-05-21T06:34:18.318Z,10
2016-05-21T06:35:18.758Z,15
2016-05-21T06:36:18.574Z,15
2016-05-21T06:37:18.077Z,15
2016-05-21T06:38:18.251Z,15
2016-05-21T06:39:17.894Z,15
2016-05-21T06:40:17.975Z,15
2016-05-21T06:41:18.713Z,15
2016-05-21T06:42:18.261Z,10
2016-05-21T06:43:17.733Z,15
2016-05-21T06:44:18.095Z,15
2016-05-21T06:45:17.676Z,10
2016-05-21T06:46:18.256Z,10
2016-05-21T06:47:17.665Z,15
2016-05-21T06:48:17.824Z,15
2016-05-21T06:49:17.702Z,15
2016-05-21T06:50:18.018Z,10
2016-05-21T06:51:17.661Z,15
2016-05-21T06:52:17.601Z,15
2016-05-21T06:53:17.603Z,15
2016-05-21T06:54:17.872Z,15
2016-05-21T06:55:17.593Z,15
2016-05-21T06:56:18.456Z,15
2016-05-21T06:57:17.098Z,15
2016-05-21T06:58:17.601Z,15
2016-05-21T06:59:17.729Z,15
2016-05-21T07:00:17.731Z,15
2016-05-21T07:01:17.016Z,15
2016-05-21T07:02:17.706Z,20
2016-05-21T07:03:17.302Z,20
2016-05-21T07:04:17.461Z,15
2016-05-21T07:05:17.667Z,15
2016-05-21T07:06:18.405Z,15
2016-05-21T07:07:18.094Z,15
2016-05-21T07:08:17.597Z,15
2016-05-21T07:09:17.131Z,15
2016-05-21T07:10:18.743Z,15
2016-05-21T07:11:17.385Z,15
2016-05-21T07:12:17.811Z,15
2016-05-21T07:13:17.720Z,15
2016-05-21T07:14:18.348Z,15
2016-05-21T07:15:17.382Z,15
2016-05-21T07:16:17.290Z,15
2016-05-21T07:17:17.074Z,15
2016-05-21T07:18:16.968Z,15
2016-05-21T07:19:17.033Z,15
2016-05-21T07:20:17.160Z,15
2016-05-21T07:21:17.617Z,15
2016-05-21T07:22:17.135Z,15
2016-05-21T07:23:17.122Z,10
2016-05-21T07:24:17.281Z,10
2016-05-21T07:25:17.142Z,15
2016-05-21T07:26:17.287Z,10
2016-05-21T07:27:16.664Z,10
2016-05-21T07:28:16.931Z,15
2016-05-21T07:29:17.029Z,10
2016-05-21T07:30:16.984Z,15
2016-05-21T07:31:17.237Z,10
2016-05-21T07:32:17.662Z,15
2016-05-21T07:33:16.914Z,15
2016-05-21T07:34:16.855Z,15
2016-05-21T07:35:16.857Z,15
2016-05-21T07:36:17.032Z,15
2016-05-21T07:37:16.910Z,15
2016-05-21T07:38:17.240Z,15
2016-05-21T07:39:18.133Z,15
2016-05-21T07:40:18.402Z,15
2016-05-21T07:41:17.780Z,15
2016-05-21T07:42:17.548Z,20
2016-05-21T07:43:16.582Z,20
2016-05-21T07:44:17.054Z,25
2016-05-21T07:45:17.243Z,20
2016-05-21T07:46:16.762Z,20
2016-05-21T07:47:16.452Z,20
2016-05-21T07:48:17.471Z,20
2016-05-21T07:49:17.113Z,20
2016-05-21T07:50:16.570Z,20
2016-05-21T07:51:17.869Z,20
2016-05-21T07:52:16.746Z,20
2016-05-21T07:53:16.358Z,20
2016-05-21T07:54:16.612Z,20
2016-05-21T07:55:16.333Z,20
2016-05-21T07:56:16.773Z,20
2016-05-21T07:57:16.245Z,20
2016-05-21T07:58:16.247Z,25
2016-05-21T07:59:16.515Z,25
2016-05-21T08:00:16.862Z,20
2016-05-21T08:01:16.256Z,20
2016-05-21T08:02:16.805Z,20
2016-05-21T08:03:16.136Z,20
2016-05-21T08:04:15.966Z,15
2016-05-21T08:05:16.156Z,15
2016-05-21T08:06:16.550Z,15
2016-05-21T08:07:16.053Z,15
2016-05-21T08:08:16.993Z,15
2016-05-21T08:09:16.480Z,15
2016-05-21T08:10:16.139Z,15
2016-05-21T08:11:16.532Z,15
2016-05-21T08:12:16.144Z,15
2016-05-21T08:13:16.491Z,15
2016-05-21T08:14:16.071Z,15
2016-05-21T08:15:15.966Z,20
2016-05-21T08:16:15.904Z,20
2016-05-21T08:17:15.705Z,15
2016-05-21T08:18:16.348Z,15
2016-05-21T08:19:15.976Z,15
2016-05-21T08:20:16.135Z,15
2016-05-21T08:21:15.840Z,15
2016-05-21T08:22:15.749Z,15
2016-05-21T08:23:16.018Z,15
2016-05-21T08:24:16.973Z,15
2016-05-21T08:25:15.585Z,15
2016-05-21T08:26:16.635Z,15
2016-05-21T08:27:15.856Z,15
2016-05-21T08:28:15.812Z,15
2016-05-21T08:29:15.596Z,20
2016-05-21T08:30:15.584Z,15
2016-05-21T08:31:16.164Z,15
2016-05-21T08:32:15.901Z,15
2016-05-21T08:33:15.403Z,20
2016-05-21T08:34:15.484Z,20
2016-05-21T08:35:15.503Z,20
2016-05-21T08:36:15.803Z,20
2016-05-21T08:37:15.790Z,20
2016-05-21T08:38:15.933Z,20
2016-05-21T08:39:15.467Z,20
2016-05-21T08:40:15.438Z,20
2016-05-21T08:41:15.300Z,20
2016-05-21T08:42:15.475Z,20
2016-05-21T08:43:15.477Z,20
2016-05-21T08:44:15.668Z,20
2016-05-21T08:45:16.155Z,20
2016-05-21T08:46:15.407Z,20
2016-05-21T08:47:15.738Z,20
2016-05-21T08:48:15.319Z,20
2016-05-21T08:49:15.885Z,20
2016-05-21T08:50:15.324Z,20
2016-05-21T08:51:15.265Z,20
2016-05-21T08:52:15.157Z,20
2016-05-21T08:53:15.395Z,25
2016-05-21T08:54:14.851Z,25
2016-05-21T08:55:15.182Z,20
2016-05-21T08:56:15.465Z,20
2016-05-21T08:57:15.875Z,20
2016-05-21T08:58:15.159Z,20
2016-05-21T08:59:15.162Z,20
2016-05-21T09:00:14.898Z,25
2016-05-21T09:01:14.979Z,25
2016-05-21T09:02:15.559Z,25
2016-05-21T09:03:14.954Z,25
2016-05-21T09:04:15.034Z,25
2016-05-21T09:05:14.802Z,20
2016-05-21T09:06:15.025Z,20
2016-05-21T09:07:14.902Z,25
2016-05-21T09:08:14.795Z,25
2016-05-21T09:09:15.595Z,25
2016-05-21T09:10:14.989Z,20
2016-05-21T09:11:15.053Z,25
2016-05-21T09:12:14.666Z,20
2016-05-21T09:13:14.839Z,25
2016-05-21T09:14:14.827Z,20
2016-05-21T09:15:14.564Z,20
2016-05-21T09:16:15.144Z,20
2016-05-21T09:17:15.038Z,20
2016-05-21T09:18:14.782Z,20
2016-05-21T09:19:14.899Z,20
2016-05-21T09:20:15.563Z,20
2016-05-21T09:21:15.368Z,15
2016-05-21T09:22:14.642Z,15
2016-05-21T09:23:14.948Z,15
2016-05-21T09:24:14.975Z,20
2016-05-21T09:25:14.705Z,20
2016-05-21T09:26:15.043Z,20
2016-05-21T09:27:14.631Z,20
2016-05-21T09:28:14.636Z,20
2016-05-21T09:29:14.656Z,20
2016-05-21T09:30:14.866Z,20
2016-05-21T09:31:14.496Z,15
2016-05-21T09:32:14.814Z,15
2016-05-21T09:33:14.552Z,15
2016-05-21T09:34:14.509Z,15
2016-05-21T09:35:14.357Z,20
2016-05-21T09:36:14.829Z,20
2016-05-21T09:37:14.396Z,20
2016-05-21T09:38:14.445Z,20
2016-05-21T09:39:14.496Z,20
2016-05-21T09:40:14.576Z,20
2016-05-21T09:41:15.189Z,20
2016-05-21T09:42:14.521Z,20
2016-05-21T09:43:14.555Z,20
2016-05-21T09:44:17.526Z,20
2016-05-21T09:45:14.403Z,20
2016-05-21T09:46:14.687Z,20
2016-05-21T09:47:14.190Z,20
2016-05-21T09:48:14.318Z,20
2016-05-21T09:49:14.196Z,20
2016-05-21T09:50:14.166Z,20
2016-05-21T09:51:14.373Z,20
2016-05-21T09:52:14.172Z,20
2016-05-21T09:53:14.112Z,20
2016-05-21T09:54:14.146Z,20
2016-05-21T09:55:14.367Z,20
2016-05-21T09:56:14.542Z,25
2016-05-21T09:57:14.091Z,20
2016-05-21T09:58:14.016Z,20
2016-05-21T09:59:14.003Z,20
2016-05-21T10:00:14.538Z,20
2016-05-21T10:01:14.071Z,20
2016-05-21T10:02:14.340Z,20
2016-05-21T10:03:14.124Z,25
2016-05-21T10:04:14.392Z,20
2016-05-21T10:05:13.801Z,25
2016-05-21T10:06:14.272Z,20
2016-05-21T10:07:13.697Z,25
2016-05-21T10:08:14.168Z,25
2016-05-21T10:09:14.437Z,25
2016-05-21T10:10:13.908Z,25
2016-05-21T10:11:14.645Z,30
2016-05-21T10:12:14.304Z,30
2016-05-21T10:13:13.979Z,35
2016-05-21T10:14:14.059Z,25
2016-05-21T10:15:14.000Z,30
2016-05-21T10:16:14.658Z,25
2016-05-21T10:17:14.318Z,25
2016-05-21T10:18:13.883Z,30
2016-05-21T10:19:17.556Z,25
2016-05-21T10:20:14.638Z,20
2016-05-21T10:21:14.438Z,20
2016-05-21T10:22:14.065Z,25
2016-05-21T10:23:14.272Z,25
2016-05-21T10:24:14.118Z,20
2016-05-21T10:25:13.589Z,20
2016-05-21T10:26:13.622Z,20
2016-05-21T10:27:14.266Z,25
2016-05-21T10:28:13.597Z,25
2016-05-21T10:29:13.459Z,25
2016-05-21T10:30:13.508Z,20
2016-05-21T10:31:13.386Z,20
2016-05-21T10:32:13.624Z,25
2016-05-21T10:33:13.439Z,25
2016-05-21T10:34:13.316Z,25
2016-05-21T10:35:13.241Z,30
2016-05-21T10:36:13.635Z,35
2016-05-21T10:37:13.341Z,30
2016-05-21T10:38:13.280Z,30
2016-05-21T10:39:13.252Z,30
2016-05-21T10:40:13.552Z,40
2016-05-21T10:41:13.351Z,30
2016-05-21T10:42:13.431Z,25
2016-05-21T10:43:13.090Z,35
2016-05-21T10:44:13.562Z,35
2016-05-21T10:45:13.190Z,35
2016-05-21T10:46:13.161Z,20
2016-05-21T10:47:13.211Z,25
2016-05-21T10:48:13.104Z,25
2016-05-21T10:49:13.092Z,25
2016-05-21T10:50:13.172Z,25
2016-05-21T10:51:13.253Z,30
2016-05-21T10:52:13.084Z,35
2016-05-21T10:53:13.087Z,35
2016-05-21T10:54:13.151Z,30
2016-05-21T10:55:13.170Z,35
2016-05-21T10:56:13.470Z,30
2016-05-21T10:57:13.301Z,25
2016-05-21T10:58:12.833Z,20
2016-05-21T10:59:12.915Z,20
2016-05-21T11:00:12.949Z,30
2016-05-21T11:01:12.920Z,25
2016-05-21T11:02:13.657Z,25
2016-05-21T11:03:12.505Z,25
2016-05-21T11:04:12.788Z,20
2016-05-21T11:05:12.712Z,25
2016-05-21T11:06:12.730Z,25
2016-05-21T11:07:12.843Z,25
2016-05-21T11:08:12.830Z,30
2016-05-21T11:09:12.848Z,20
2016-05-21T11:10:12.741Z,20
2016-05-21T11:11:12.916Z,15
2016-05-21T11:12:13.294Z,20
2016-05-21T11:13:13.359Z,25
2016-05-21T11:14:12.971Z,25
2016-05-21T11:15:12.412Z,25
2016-05-21T11:16:12.507Z,35
2016-05-21T11:17:15.620Z,25
2016-05-21T11:18:12.763Z,25
2016-05-21T11:19:12.562Z,25
2016-05-21T11:23:37.276Z,35
2016-05-21T11:23:52.170Z,30
2016-05-21T11:24:51.938Z,30
2016-05-21T11:25:51.566Z,25
2016-05-21T11:26:51.536Z,30
2016-05-21T11:31:12.141Z,30
2016-05-21T11:31:40.425Z,30
2016-05-21T11:32:27.222Z,30
2016-05-21T11:33:27.585Z,30
2016-05-21T11:34:27.041Z,25
2016-05-21T11:35:27.574Z,25
2016-05-21T11:36:27.702Z,25
2016-05-21T11:37:27.205Z,30
2016-05-21T11:38:26.927Z,45
2016-05-21T11:39:27.194Z,35
2016-05-21T11:40:26.463Z,40
2016-05-21T11:41:27.152Z,40
2016-05-21T11:42:27.937Z,35
2016-05-21T11:43:26.954Z,40
2016-05-21T11:44:26.302Z,45
2016-05-21T11:45:26.367Z,45
2016-05-21T11:46:26.604Z,45
2016-05-21T11:47:26.498Z,50
2016-05-21T11:48:29.594Z,50
2016-05-21T11:49:26.628Z,70
2016-05-21T11:50:26.318Z,55
2016-05-21T11:51:26.508Z,150
2016-05-21T11:52:26.167Z,195
2016-05-21T11:53:26.185Z,160
2016-05-21T11:54:27.250Z,140
2016-05-21T11:55:26.425Z,110
2016-05-21T11:56:26.193Z,75
2016-05-21T11:57:26.150Z,50
2016-05-21T11:58:26.698Z,60
2016-05-21T11:59:27.670Z,95
2016-05-21T12:00:27.719Z,35
2016-05-21T12:01:26.519Z,70
2016-05-21T12:02:26.474Z,120
2016-05-21T12:04:26.106Z,115
2016-05-21T12:05:26.421Z,120
2016-05-21T12:06:26.688Z,100
2016-05-21T12:07:26.676Z,100
2016-05-21T12:08:39.603Z,40
2016-05-21T12:09:25.385Z,35
2016-05-21T12:10:25.638Z,35
2016-05-21T12:11:26.296Z,25
2016-05-21T12:12:25.815Z,25
2016-05-21T12:13:25.801Z,25
2016-05-21T12:14:25.413Z,25
2016-05-21T12:15:25.682Z,25
2016-05-21T12:16:26.435Z,25
2016-05-21T12:17:26.578Z,25
2016-05-21T12:18:26.971Z,25
2016-05-21T12:20:26.476Z,40
2016-05-21T12:21:26.026Z,25
2016-05-21T12:22:25.404Z,20
2016-05-21T12:23:26.062Z,20
2016-05-21T12:24:25.378Z,25
2016-05-21T12:25:29.053Z,25
2016-05-21T12:26:26.180Z,25
2016-05-21T12:27:25.495Z,25
2016-05-21T12:28:25.311Z,35
2016-05-21T12:29:25.953Z,40
2016-05-21T12:30:25.488Z,40
2016-05-21T12:31:25.194Z,30
2016-05-21T12:32:25.415Z,45
2016-05-21T12:33:25.418Z,55
2016-05-21T12:34:25.186Z,50
2016-05-21T12:35:25.439Z,45
2016-05-21T12:36:26.316Z,35
2016-05-21T12:37:25.507Z,25
2016-05-21T12:38:25.290Z,30
2016-05-21T12:39:25.184Z,55
2016-05-21T12:40:25.343Z,55
2016-05-21T12:41:25.438Z,60
2016-05-21T12:42:29.021Z,45
2016-05-21T12:43:25.288Z,50
2016-05-21T12:44:25.166Z,25
2016-05-21T12:45:25.294Z,50
2016-05-21T12:46:25.702Z,65
2016-05-21T12:47:25.096Z,25
2016-05-21T12:48:25.114Z,25
2016-05-21T12:49:24.929Z,55
2016-05-21T12:50:24.635Z,60
2016-05-21T12:51:25.545Z,50
2016-05-21T12:52:24.969Z,80
2016-05-21T12:53:25.003Z,80
2016-05-21T12:54:25.568Z,90
2016-05-21T12:55:39.070Z,55
2016-05-21T12:56:25.261Z,60
2016-05-21T12:57:26.498Z,70
2016-05-21T12:58:24.984Z,45
2016-05-21T12:59:24.784Z,50
2016-05-21T13:01:25.509Z,40
2016-05-21T13:02:25.167Z,65
2016-05-21T13:03:24.873Z,85
2016-05-21T13:04:24.892Z,95
2016-05-21T13:05:24.816Z,155
2016-05-21T13:06:25.085Z,175
2016-05-21T13:07:24.665Z,145
2016-05-21T13:08:24.558Z,140
2016-05-21T13:09:24.764Z,95
2016-05-21T13:10:24.721Z,310
2016-05-21T13:11:24.786Z,50
2016-05-21T13:12:25.663Z,310
2016-05-21T13:13:26.088Z,230
2016-05-21T13:15:21.469Z,400
2016-05-21T13:15:36.141Z,245
2016-05-21T13:16:36.814Z,345
2016-05-21T13:17:37.114Z,375
2016-05-21T13:18:36.663Z,340
2016-05-21T13:19:36.401Z,395
2016-05-21T13:20:35.857Z,50
2016-05-21T13:21:35.937Z,365
2016-05-21T13:22:39.018Z,35
2016-05-21T13:23:36.381Z,30
2016-05-21T13:24:36.133Z,40
2016-05-21T13:25:37.120Z,920
2016-05-21T13:26:36.139Z,40
2016-05-21T13:27:35.719Z,40
2016-05-21T13:28:35.847Z,785
2016-05-21T13:29:36.787Z,35
2016-05-21T13:30:36.556Z,35
2016-05-21T13:31:35.653Z,75
2016-05-21T13:32:35.733Z,360
2016-05-21T13:33:35.922Z,175
2016-05-21T13:34:36.519Z,350
2016-05-21T13:35:37.006Z,360
2016-05-21T13:36:37.212Z,455
2016-05-21T13:37:36.575Z,180
2016-05-21T13:38:36.358Z,160
2016-05-21T13:39:35.830Z,110
2016-05-21T13:40:35.957Z,155
2016-05-21T13:41:36.414Z,205
2016-05-21T13:42:36.588Z,125
2016-05-21T13:43:36.262Z,145
2016-05-21T13:44:35.999Z,145
2016-05-21T13:45:36.424Z,130
2016-05-21T13:46:36.036Z,140
2016-05-21T13:48:36.244Z,345
2016-05-21T13:49:35.997Z,350
2016-05-21T13:50:36.421Z,340
2016-05-21T13:51:35.393Z,240
2016-05-21T13:52:36.302Z,285
2016-05-21T13:53:35.789Z,175
2016-05-21T13:54:35.621Z,150
2016-05-21T13:55:35.357Z,145
2016-05-21T13:56:35.719Z,75
2016-05-21T13:57:36.487Z,170
2016-05-21T13:58:35.443Z,190
2016-05-21T13:59:35.743Z,400
2016-05-21T14:00:35.433Z,575
2016-05-21T14:01:35.326Z,400
2016-05-21T14:02:35.282Z,310
2016-05-21T14:03:36.004Z,345
2016-05-21T14:04:36.428Z,320
2016-05-21T14:05:35.243Z,335
2016-05-21T14:06:36.183Z,365
2016-05-21T14:07:35.186Z,260
2016-05-21T14:08:48.785Z,190
2016-05-21T14:09:35.300Z,200
2016-05-21T14:10:35.288Z,170
2016-05-21T14:11:36.197Z,110
2016-05-21T14:12:35.075Z,135
2016-05-21T14:13:35.077Z,115
2016-05-21T14:14:35.143Z,125
2016-05-21T14:15:34.911Z,190
2016-05-21T14:16:34.976Z,170
2016-05-21T14:17:35.385Z,355
2016-05-21T14:18:35.013Z,500
2016-05-21T14:19:34.952Z,385
2016-05-21T14:20:34.909Z,510
2016-05-21T14:21:36.270Z,510
2016-05-21T14:22:36.054Z,320
2016-05-21T14:23:34.948Z,170
2016-05-21T14:24:34.732Z,110
2016-05-21T14:25:35.015Z,100
2016-05-21T14:26:35.832Z,110
2016-05-21T14:27:36.443Z,140
2016-05-21T14:28:35.321Z,135
2016-05-21T14:29:36.104Z,130
2016-05-21T14:30:35.139Z,125
2016-05-21T14:31:34.798Z,95
2016-05-21T14:32:34.956Z,95
2016-05-21T14:33:34.959Z,80
2016-05-21T14:34:34.806Z,90
2016-05-21T14:35:35.293Z,95
2016-05-21T14:36:35.014Z,55
2016-05-21T14:37:34.454Z,50
2016-05-21T14:38:49.116Z,55
2016-05-21T14:39:35.616Z,60